Uriel Rodriguez

Scout - Monterrey
4 Jun 2028
Sonntag
Verarbeitung

Persönlichkeit

Anpassungsfähigkeit (7) Ehrgeiz (10) Kontroverse (2) Loyalität (7) Druck (13) Professionalität (8) Fairness (14) Temperament (15)

Profil

Trainerstil Demokratisch
Lizenz Kontinentale B
Entschlossenheit 15
Menschenführung 6
Motivation 8
Disziplin 14
Arbeitszufriedenheit
100%
Ermüdung
0%
Rolle Scout
Gehalt 78.6K p/W
Vertrag 14.03.2030

Leistung

Verhalten Gut
Trainingseffektivität
50%
Spielerentwicklung
55%
Verletzungsprävention
35%
Taktische Umsetzung
45%

Letzte Ereignisse

Spieler begutachtet jetzt
Geburtstag 7T her

Aktuell beobachtet

96
Spieler Verein Status Fähigkeit Vertrauen Beobachtet Zuletzt beobachtet Letzte Stimme
Alejandro Rodríguez Zaragoza Aktiv 133 / 122 40% 2 02.06.2028 -
Aaron Ramsdale Southampton Aktiv 156 / 158 40% 1 02.06.2028 -
Víctor Guzmán Toluca Verloren 137 / 130 62% 1 01.06.2028 -
Ayrton Costa Boca Juniors Aktiv 123 / 144 40% 2 31.01.2028 -
Agustín Giay Palmeiras Aktiv 136 / 138 40% 2 31.01.2028 -
Luciano Juba Bahia Aktiv 134 / 129 40% 2 26.01.2028 -
Beñat Turrientes Real Sociedad Aktiv 149 / 147 40% 1 26.01.2028 -
Luís Esteves Atlas Aktiv 121 / 132 40% 3 25.01.2028 -
Víctor Chust Elche Aktiv 142 / 145 40% 1 25.01.2028 -
Marcos Antonio Sport Recife Aktiv 138 / 133 40% 2 22.01.2028 -
Pape Guèye Villarreal Aktiv 154 / 150 40% 1 21.01.2028 -
Felipe Peña Biafore Lanús Aktiv 119 / 132 40% 1 20.01.2028 -
Tomás Silva Platense Aktiv 136 / 125 40% 2 19.01.2028 -
Lucas Piton Vasco da Gama Aktiv 129 / 130 40% 1 19.01.2028 -
Danilo Botafogo Aktiv 144 / 150 40% 1 18.01.2028 -
Ignacio Perruzzi San Lorenzo Aktiv 130 / 130 40% 1 02.01.2028 -
Kevin Zenón Boca Juniors Aktiv 140 / 122 40% 1 31.08.2027 -
Martín Ojeda Orlando City Aktiv 130 / 135 40% 2 28.08.2027 -
Chris Brady Chicago Fire Aktiv 131 / 128 40% 1 28.08.2027 -
Diego Conde Sevilla Aktiv 144 / 148 40% 1 28.08.2027 -
Gabriel Brazão Santos Aktiv 144 / 134 40% 1 26.08.2027 -
Nahuel Furtado Wanderers Aktiv 121 / 118 40% 1 26.08.2027 -
Sebastián Meza Huracán Aktiv 139 / 126 40% 1 24.08.2027 -
Sergio Rangel La Equidad Aktiv 118 / 117 40% 2 21.08.2027 -
Gastón Togni Defensa y Justicia Aktiv 125 / 127 40% 1 21.08.2027 -
Lucas Da Cunha Como Aktiv 152 / 139 40% 1 18.08.2027 -
Cristian Shpendi Cesena Aktiv 131 / 136 40% 1 18.08.2027 -
Santiago Silva Boston River Aktiv 127 / 125 40% 1 18.08.2027 -
Álvaro Fernández Gijón Aktiv 145 / 143 40% 1 18.08.2027 -
Javi Puado Espanyol Aktiv 142 / 149 40% 1 15.08.2027 -
Jesús Vázquez Valencia Aktiv 140 / 139 40% 1 15.08.2027 -
Roberto López Leganés Aktiv 144 / 145 40% 3 14.08.2027 -
Álex Lizancos Burgos Aktiv 137 / 138 40% 1 14.08.2027 -
Jon Morcillo Almería Aktiv 144 / 132 40% 3 13.08.2027 -
Diego Pampín Granada Aktiv 125 / 117 40% 2 13.08.2027 -
Manu Morlanes Mallorca Aktiv 136 / 133 40% 2 12.08.2027 -
Enrique Clemente Las Palmas Aktiv 133 / 127 40% 1 11.08.2027 -
Fer Niño Elche Aktiv 125 / 134 40% 2 10.08.2027 -
Toni Martínez Alavés Aktiv 151 / 143 40% 1 10.08.2027 -
Yassine Kechta Leganés Aktiv 137 / 127 40% 2 09.08.2027 -
Urko Izeta Cádiz Aktiv 130 / 140 40% 2 09.08.2027 -
Aaron Connolly Leyton Orient Aktiv 134 / 129 40% 2 08.08.2027 -
Ali Ahmed Norwich City Aktiv 133 / 134 40% 1 08.08.2027 -
Anthony Patterson Wrexham Aktiv 145 / 141 40% 1 07.08.2027 -
Adrià Altimira Deportivo La Coruña Aktiv 135 / 131 40% 1 07.08.2027 -
Álex Forés Burgos Aktiv 140 / 122 40% 2 06.08.2027 -
Ezequiel Ponce Elche Aktiv 134 / 131 40% 1 06.08.2027 -
Elijah Adebayo Luton Town Aktiv 133 / 129 40% 2 04.08.2027 -
Isaiah Jones Luton Town Aktiv 123 / 118 40% 1 29.07.2027 -
Ronald Swansea City Aktiv 126 / 130 40% 1 29.07.2027 -
Joe Gelhardt Hull City Aktiv 140 / 139 40% 1 27.07.2027 -
Manu Fuster Las Palmas Aktiv 137 / 143 40% 1 25.07.2027 -
Martim Neto Elche Aktiv 138 / 131 40% 1 21.07.2027 -
Marvin Park Las Palmas Aktiv 125 / 137 40% 1 21.07.2027 -
Robin Risser RC Lens Aktiv 148 / 153 40% 1 21.07.2027 -
Adalberto Carrasquilla Pumas UNAM Aktiv 141 / 137 40% 1 19.07.2027 -
Sidiki Chérif Coventry City Aktiv 127 / 130 40% 1 15.07.2027 -
Jonathan Rowe Bologna Aktiv 137 / 140 40% 1 15.07.2027 -
Oleksandr Saputin Zorya Aktiv 114 / 138 40% 1 14.07.2027 -
Lois Mignolet Racing Genk Aktiv 148 / 141 40% 1 14.07.2027 -
Alfredo Quintero La Equidad Aktiv 126 / 123 40% 3 11.07.2027 -
Pável Pérez Toluca Aktiv 140 / 134 40% 1 11.07.2027 -
Ross McCrorie Bristol City Aktiv 138 / 123 40% 1 10.07.2027 -
Ismael Díaz Leon Aktiv 130 / 133 40% 4 09.07.2027 -
Lazar Carević Famalicao Aktiv 127 / 128 40% 1 09.07.2027 -
Ilias Sebaoui Sint-Truiden Aktiv 129 / 140 40% 1 07.07.2027 -
Deniz Ertaş Konyaspor Aktiv 108 / 120 40% 1 06.07.2027 -
Bilal Bayazıt Kayserispor Aktiv 132 / 132 40% 1 06.07.2027 -
Nicolás Castro Toluca Aktiv 133 / 134 40% 1 04.07.2027 -
Marcel Ruiz FC Nordsjaelland Aktiv 136 / 147 40% 2 02.07.2027 -
Alessio Zerbin Frosinone Aktiv 131 / 140 40% 1 02.07.2027 -
Gorka Guruzeta Athletic Bilbao Aktiv 148 / 135 40% 1 02.07.2027 -
Rafik Guitane Estoril Praia Aktiv 136 / 121 40% 1 30.06.2027 -
Tomás Durso Atlético Tucumán Aktiv 131 / 135 40% 1 29.06.2027 -
Samuele Birindelli Monza Aktiv 138 / 124 40% 1 26.06.2027 -
Demba Thiam Monza Aktiv 132 / 115 40% 1 26.06.2027 -
Diego Enríquez Sporting Cristal Aktiv 135 / 123 40% 1 26.06.2027 -
Adam Randell Bristol City Aktiv 127 / 136 40% 2 24.06.2027 -
Fashion Sakala Al-Fayha Aktiv 138 / 145 40% 1 24.06.2027 -
Nathan Trott Cardiff City Aktiv 123 / 129 40% 1 24.06.2027 -
Samed Baždar Sint-Truiden Aktiv 128 / 127 40% 1 21.06.2027 -
Brian Rodríguez Club America Aktiv 134 / 129 40% 1 21.06.2027 -
Jeremy Márquez Cruz Azul Aktiv 135 / 120 40% 1 20.06.2027 -
Jorge Sánchez Atlas Aktiv 125 / 120 40% 1 20.06.2027 -
Jérémy Livolant Casa Pia Aktiv 126 / 137 40% 1 19.06.2027 -
Adriel Torreense Aktiv 126 / 128 40% 1 18.06.2027 -
Marwan Ateya Al Ahly Aktiv 117 / 131 40% 1 18.06.2027 -
Ciprian Dragusin Krasnodar Aktiv 131 / 151 40% 1 17.06.2027 -
Alexandr Sobolev Zenit Aktiv 147 / 143 40% 1 17.06.2027 -
Richard Ledezma Guadalajara Aktiv 150 / 139 40% 1 14.06.2027 -
Ezequiel Bullaude Santos Laguna Aktiv 117 / 136 40% 1 14.06.2027 -
Alessandro Bianco Modena Aktiv 129 / 135 40% 1 12.06.2027 -
Jesús Angulo Tigres Aktiv 141 / 149 40% 1 08.06.2027 -
Erik Prekop Gornik Zabrze Aktiv 141 / 108 40% 1 06.06.2027 -
Bryan González Guadalajara Aktiv 142 / 118 40% 1 03.06.2027 -
Fernando Beltrán Leon Aktiv 135 / 113 40% 1 02.06.2027 -